A- A+ FrançaisEnglishEspañol中国

le plus proche LFBT Tarbes-Lourdes-PyrénéesLFOZ Orleans-St-Denis-De-L'hotel LFGA Colmar-Houssen LFKJ Ajaccio-Napoléon-Bonaparte

manche à air

La météo aéronautique pour les pilotes, la préparation du vol avec les METAR (METeorological Aerodrome Report, message d'observation des conditions météorologiques pour l'aviation) et Les TAF (Terminal Aerodrome Forecast : message de prévision à court terme des conditions météorologiques pour l'aviation). Et les autres ressources comme les VAC (Visual Approch Chart) et les NOTAM (Notice To Airman) pour préprer les vols.

Aéroport Bornholm Ronne (Danemark) / OACI EKRN/ IATA RNN

L'altitude de l'aéroport Bornholm Ronne est de 16 m=52 ft. Il est situé à proximité de Rønne (Danemark). La météo générale à 5 jours est disponible pour Nexo situé à 23.6 km.

METAR de l'aéroport Bornholm Ronne - EKRN

EKRN 291720Z AUTO 23012KT 9999 DZ OVC009/// 14/13 Q0995

Décodage du METAR de l'aéroport Bornholm Ronne (DK)

METAR émis par EKRN le dimanche 29 septembre 2019 à 17:20 heure TU. C'est un METAR généré automatiquement. Attention ce METAR est obsolète car il a été émis il y a 3 heure et 16 minutes.

La visibilité est de supérieure à 10 km=supérieure à 6.2 sm.

La température est de 14°C=57 °F et le point rosée est de 13°C=55 °F . Ce qui correspond à 94% d'humidité relative.

Le QNH est de 995 hPa=29.38 inHg

Vent de 12 kt=22 km/h, orienté à 230°.

Nuages : Couverture nuageuse soudée à 900 ft=270 mètres.

DZ

TAF de l'aéroport Bornholm Ronne - EKRN

EKRN 291421Z 2915/2922 21012KT 8000 -RADZ SCT008 BKN015 TEMPO 2915/2922 4000 RADZ BKN008

EKRN 291421Z 2915/2922 21012KT 8000 faible RADZ nuages épars à 008 couverture nuageuse fragmentée à 015 temporairement 2915/2922 4000 pluie DZ couverture nuageuse fragmentée à 008

Aéroport à proximité de Bornholm Ronne

Météo générale à 5 jours à Nexo (23.6 km)ESMI Aéroport Sovdeborg (91 km)ESMS Aéroport Malmo Sturup (102 km)ESMK Aéroport Kristianstad Everod (104 km)EDCP Aéroport Peenemunde (119 km)EDCG Aéroport Guettin Ruegen (119 km)ESME Aéroport Eslov (126 km)

VAC de l'aéroport Bornholm Ronne - EKRN

La carte d'approche à vue (VAC Visual Approah Chart) est fournie sans aucune garantie de son actualité. Le pilote est le seul responsable de la vérification de sa validité avant de l'utiliser opérationnellement pour préparer un vol ou l'utiliser lors de sa navigation.

VAC de EKRN

Vue aérienne de l'aéroport Bornholm Ronne

NOTAM de l'aéroport Bornholm Ronne

Les NOTAM sont fournis sans aucune garantie de leur actualité. Le pilote est le seul responsable de la vérification de sa validité avant de l'utiliser opérationnellement pour préparer un vol ou l'utiliser lors de sa navigation.

Pas de NOTAM

Sources des données